Terminal Aerodrome Forecast
Issued by NWS

Home | Current Version | Previous Version | Text Only | Print | Product List | Glossary On
Versions: 1 2 3 4 5 6 7 8 9 10 11 12 13 14 15 16
000
FTUS46 KSEW 231742
TAFPAE
TAF
KPAE 231742Z 2318/2418 13008KT P6SM -RA SCT020 BKN030 WS020/18035KT
      TEMPO 2318/2319 5SM -RA BR OVC020
     FM232200 14012G20KT P6SM -RA SCT015 OVC020
      TEMPO 2322/2402 5SM -RA BR BKN015 OVC020
     FM241000 17011G19KT P6SM VCSH SCT008 BKN012 OVC020=

USA.gov is the U.S. government's official web portal to all federal, state and local government web resources and services.